sensor_id;sensor_type;location;lat;lon;timestamp;temperature;humidity
9998;DHT22;5038;53.064;8.624;2024-03-17T00:02:09;5.10;99.90
9998;DHT22;5038;53.064;8.624;2024-03-17T00:04:50;5.10;99.90
9998;DHT22;5038;53.064;8.624;2024-03-17T00:07:21;5.10;99.90
9998;DHT22;5038;53.064;8.624;2024-03-17T00:09:49;5.10;99.90
9998;DHT22;5038;53.064;8.624;2024-03-17T00:12:19;5.10;99.90
9998;DHT22;5038;53.064;8.624;2024-03-17T00:14:51;5.00;99.90
9998;DHT22;5038;53.064;8.624;2024-03-17T00:17:18;5.00;99.90
9998;DHT22;5038;53.064;8.624;2024-03-17T00:19:48;5.00;99.90
9998;DHT22;5038;53.064;8.624;2024-03-17T00:22:15;5.00;99.90
9998;DHT22;5038;53.064;8.624;2024-03-17T00:24:44;5.00;99.90
9998;DHT22;5038;53.064;8.624;2024-03-17T00:27:13;4.90;99.90
9998;DHT22;5038;53.064;8.624;2024-03-17T00:29:42;4.90;99.90
9998;DHT22;5038;53.064;8.624;2024-03-17T00:32:12;4.90;99.90
9998;DHT22;5038;53.064;8.624;2024-03-17T00:34:41;4.90;99.90
9998;DHT22;5038;53.064;8.624;2024-03-17T00:37:08;4.90;99.90
9998;DHT22;5038;53.064;8.624;2024-03-17T00:39:37;4.80;99.90
9998;DHT22;5038;53.064;8.624;2024-03-17T00:42:05;5.00;99.90
9998;DHT22;5038;53.064;8.624;2024-03-17T00:44:37;4.80;99.90
9998;DHT22;5038;53.064;8.624;2024-03-17T00:47:11;4.80;99.90
9998;DHT22;5038;53.064;8.624;2024-03-17T00:49:50;4.80;99.90
9998;DHT22;5038;53.064;8.624;2024-03-17T00:52:17;4.80;99.90
9998;DHT22;5038;53.064;8.624;2024-03-17T00:54:47;4.70;99.90
9998;DHT22;5038;53.064;8.624;2024-03-17T00:57:13;4.70;99.90
9998;DHT22;5038;53.064;8.624;2024-03-17T00:59:43;4.80;99.90
9998;DHT22;5038;53.064;8.624;2024-03-17T01:02:12;4.70;99.90
9998;DHT22;5038;53.064;8.624;2024-03-17T01:04:46;4.70;99.90
9998;DHT22;5038;53.064;8.624;2024-03-17T01:07:13;4.70;99.90
9998;DHT22;5038;53.064;8.624;2024-03-17T01:09:47;4.70;99.90
9998;DHT22;5038;53.064;8.624;2024-03-17T01:12:14;4.60;99.90
9998;DHT22;5038;53.064;8.624;2024-03-17T01:14:42;4.60;99.90
9998;DHT22;5038;53.064;8.624;2024-03-17T01:17:12;4.60;99.90
9998;DHT22;5038;53.064;8.624;2024-03-17T01:19:40;4.60;99.90
9998;DHT22;5038;53.064;8.624;2024-03-17T01:22:09;4.60;99.90
9998;DHT22;5038;53.064;8.624;2024-03-17T01:24:40;4.60;99.90
9998;DHT22;5038;53.064;8.624;2024-03-17T01:27:12;4.50;99.90
9998;DHT22;5038;53.064;8.624;2024-03-17T01:29:45;4.50;99.90
9998;DHT22;5038;53.064;8.624;2024-03-17T01:32:18;4.50;99.90
9998;DHT22;5038;53.064;8.624;2024-03-17T01:34:46;4.50;99.90
9998;DHT22;5038;53.064;8.624;2024-03-17T01:37:13;4.40;99.90
9998;DHT22;5038;53.064;8.624;2024-03-17T01:39:41;4.50;99.90
9998;DHT22;5038;53.064;8.624;2024-03-17T01:42:08;4.50;99.90
9998;DHT22;5038;53.064;8.624;2024-03-17T01:44:36;4.40;99.90
9998;DHT22;5038;53.064;8.624;2024-03-17T01:47:03;4.30;99.90
9998;DHT22;5038;53.064;8.624;2024-03-17T01:49:32;4.30;99.90
9998;DHT22;5038;53.064;8.624;2024-03-17T01:52:01;4.30;99.90
9998;DHT22;5038;53.064;8.624;2024-03-17T01:54:33;4.30;99.90
9998;DHT22;5038;53.064;8.624;2024-03-17T01:57:00;4.50;99.90
9998;DHT22;5038;53.064;8.624;2024-03-17T01:59:28;4.40;99.90
9998;DHT22;5038;53.064;8.624;2024-03-17T02:01:54;4.30;99.90
9998;DHT22;5038;53.064;8.624;2024-03-17T02:04:25;4.20;99.90
9998;DHT22;5038;53.064;8.624;2024-03-17T02:06:54;4.20;99.90
9998;DHT22;5038;53.064;8.624;2024-03-17T02:09:23;4.20;99.90
9998;DHT22;5038;53.064;8.624;2024-03-17T02:12:05;4.20;99.90
9998;DHT22;5038;53.064;8.624;2024-03-17T02:14:36;4.10;99.90
9998;DHT22;5038;53.064;8.624;2024-03-17T02:17:05;4.10;99.90
9998;DHT22;5038;53.064;8.624;2024-03-17T02:19:35;4.10;99.90
9998;DHT22;5038;53.064;8.624;2024-03-17T02:22:13;4.10;99.90
9998;DHT22;5038;53.064;8.624;2024-03-17T02:24:43;4.10;99.90
9998;DHT22;5038;53.064;8.624;2024-03-17T02:27:10;4.00;99.90
9998;DHT22;5038;53.064;8.624;2024-03-17T02:29:43;4.00;99.90
9998;DHT22;5038;53.064;8.624;2024-03-17T02:32:10;4.00;99.90
9998;DHT22;5038;53.064;8.624;2024-03-17T02:34:41;4.00;99.90
9998;DHT22;5038;53.064;8.624;2024-03-17T02:37:09;4.10;99.90
9998;DHT22;5038;53.064;8.624;2024-03-17T02:39:41;4.00;99.90
9998;DHT22;5038;53.064;8.624;2024-03-17T02:42:12;3.90;99.90
9998;DHT22;5038;53.064;8.624;2024-03-17T02:44:40;4.00;99.90
9998;DHT22;5038;53.064;8.624;2024-03-17T02:47:13;3.90;99.90
9998;DHT22;5038;53.064;8.624;2024-03-17T02:49:44;3.90;99.90
9998;DHT22;5038;53.064;8.624;2024-03-17T02:52:20;3.90;99.90
9998;DHT22;5038;53.064;8.624;2024-03-17T02:54:48;3.90;99.90
9998;DHT22;5038;53.064;8.624;2024-03-17T02:57:19;3.90;99.90
9998;DHT22;5038;53.064;8.624;2024-03-17T02:59:48;3.80;99.90
9998;DHT22;5038;53.064;8.624;2024-03-17T03:02:18;3.70;99.90
9998;DHT22;5038;53.064;8.624;2024-03-17T03:04:48;3.80;99.90
9998;DHT22;5038;53.064;8.624;2024-03-17T03:07:20;3.80;99.90
9998;DHT22;5038;53.064;8.624;2024-03-17T03:09:49;3.70;99.90
9998;DHT22;5038;53.064;8.624;2024-03-17T03:12:23;3.70;99.90
9998;DHT22;5038;53.064;8.624;2024-03-17T03:14:54;3.70;99.90
9998;DHT22;5038;53.064;8.624;2024-03-17T03:17:21;3.70;99.90
9998;DHT22;5038;53.064;8.624;2024-03-17T03:19:56;3.70;99.90
9998;DHT22;5038;53.064;8.624;2024-03-17T03:22:26;3.70;99.90
9998;DHT22;5038;53.064;8.624;2024-03-17T03:25:01;3.60;99.90
9998;DHT22;5038;53.064;8.624;2024-03-17T03:27:29;3.90;99.90
9998;DHT22;5038;53.064;8.624;2024-03-17T03:29:58;3.70;99.90
9998;DHT22;5038;53.064;8.624;2024-03-17T03:32:33;3.80;99.90
9998;DHT22;5038;53.064;8.624;2024-03-17T03:35:07;3.60;99.90
9998;DHT22;5038;53.064;8.624;2024-03-17T03:37:37;3.60;99.90
9998;DHT22;5038;53.064;8.624;2024-03-17T03:40:08;3.60;99.90
9998;DHT22;5038;53.064;8.624;2024-03-17T03:42:44;3.60;99.90
9998;DHT22;5038;53.064;8.624;2024-03-17T03:45:14;3.60;99.90
9998;DHT22;5038;53.064;8.624;2024-03-17T03:47:47;3.60;99.90
9998;DHT22;5038;53.064;8.624;2024-03-17T03:50:19;3.60;99.90
9998;DHT22;5038;53.064;8.624;2024-03-17T03:52:53;3.70;99.90
9998;DHT22;5038;53.064;8.624;2024-03-17T03:55:24;3.60;99.90
9998;DHT22;5038;53.064;8.624;2024-03-17T03:57:54;3.50;99.90
9998;DHT22;5038;53.064;8.624;2024-03-17T04:00:23;3.50;99.90
9998;DHT22;5038;53.064;8.624;2024-03-17T04:02:56;3.60;99.90
9998;DHT22;5038;53.064;8.624;2024-03-17T04:05:24;3.50;99.90
9998;DHT22;5038;53.064;8.624;2024-03-17T04:07:57;3.80;99.90
9998;DHT22;5038;53.064;8.624;2024-03-17T04:10:25;3.50;99.90
9998;DHT22;5038;53.064;8.624;2024-03-17T04:12:56;3.50;99.90
9998;DHT22;5038;53.064;8.624;2024-03-17T04:15:27;3.60;99.90
9998;DHT22;5038;53.064;8.624;2024-03-17T04:17:56;3.70;99.90
9998;DHT22;5038;53.064;8.624;2024-03-17T04:20:24;3.60;99.90
9998;DHT22;5038;53.064;8.624;2024-03-17T04:22:52;3.60;99.90
9998;DHT22;5038;53.064;8.624;2024-03-17T04:25:24;3.60;99.90
9998;DHT22;5038;53.064;8.624;2024-03-17T04:27:52;3.70;99.90
9998;DHT22;5038;53.064;8.624;2024-03-17T04:30:24;3.70;99.90
9998;DHT22;5038;53.064;8.624;2024-03-17T04:32:58;3.60;99.90
9998;DHT22;5038;53.064;8.624;2024-03-17T04:35:25;3.70;99.90
9998;DHT22;5038;53.064;8.624;2024-03-17T04:37:57;3.60;99.90
9998;DHT22;5038;53.064;8.624;2024-03-17T04:40:27;3.50;99.90
9998;DHT22;5038;53.064;8.624;2024-03-17T04:42:57;3.60;99.90
9998;DHT22;5038;53.064;8.624;2024-03-17T04:45:25;3.60;99.90
9998;DHT22;5038;53.064;8.624;2024-03-17T04:47:53;3.60;99.90
9998;DHT22;5038;53.064;8.624;2024-03-17T04:50:21;3.60;99.90
9998;DHT22;5038;53.064;8.624;2024-03-17T04:52:50;3.80;99.90
9998;DHT22;5038;53.064;8.624;2024-03-17T04:55:18;3.70;99.90
9998;DHT22;5038;53.064;8.624;2024-03-17T04:57:47;3.60;99.90
9998;DHT22;5038;53.064;8.624;2024-03-17T05:00:15;3.70;99.90
9998;DHT22;5038;53.064;8.624;2024-03-17T05:02:44;3.60;99.90
9998;DHT22;5038;53.064;8.624;2024-03-17T05:05:14;3.60;99.90
9998;DHT22;5038;53.064;8.624;2024-03-17T05:07:42;3.60;99.90
9998;DHT22;5038;53.064;8.624;2024-03-17T05:10:11;3.60;99.90
9998;DHT22;5038;53.064;8.624;2024-03-17T05:12:40;3.60;99.90
9998;DHT22;5038;53.064;8.624;2024-03-17T05:15:11;3.60;99.90
9998;DHT22;5038;53.064;8.624;2024-03-17T05:17:44;3.80;99.90
9998;DHT22;5038;53.064;8.624;2024-03-17T05:20:19;3.60;99.90
9998;DHT22;5038;53.064;8.624;2024-03-17T05:22:49;3.60;99.90
9998;DHT22;5038;53.064;8.624;2024-03-17T05:25:16;3.50;99.90
9998;DHT22;5038;53.064;8.624;2024-03-17T05:27:48;3.60;99.90
9998;DHT22;5038;53.064;8.624;2024-03-17T05:30:18;3.70;99.90
9998;DHT22;5038;53.064;8.624;2024-03-17T05:32:47;3.50;99.90
9998;DHT22;5038;53.064;8.624;2024-03-17T05:35:18;3.70;99.90
9998;DHT22;5038;53.064;8.624;2024-03-17T05:37:48;3.60;99.90
9998;DHT22;5038;53.064;8.624;2024-03-17T05:40:18;3.60;99.90
9998;DHT22;5038;53.064;8.624;2024-03-17T05:42:48;3.50;99.90
9998;DHT22;5038;53.064;8.624;2024-03-17T05:45:18;3.70;99.90
9998;DHT22;5038;53.064;8.624;2024-03-17T05:47:47;3.50;99.90
9998;DHT22;5038;53.064;8.624;2024-03-17T05:50:19;3.50;99.90
9998;DHT22;5038;53.064;8.624;2024-03-17T05:52:49;3.50;99.90
9998;DHT22;5038;53.064;8.624;2024-03-17T05:55:17;3.50;99.90
9998;DHT22;5038;53.064;8.624;2024-03-17T05:57:45;3.50;99.90
9998;DHT22;5038;53.064;8.624;2024-03-17T06:00:13;3.50;99.90
9998;DHT22;5038;53.064;8.624;2024-03-17T06:02:45;3.50;99.90
9998;DHT22;5038;53.064;8.624;2024-03-17T06:05:13;3.40;99.90
9998;DHT22;5038;53.064;8.624;2024-03-17T06:07:49;3.40;99.90
9998;DHT22;5038;53.064;8.624;2024-03-17T06:10:17;3.40;99.90
9998;DHT22;5038;53.064;8.624;2024-03-17T06:12:50;3.40;99.90
9998;DHT22;5038;53.064;8.624;2024-03-17T06:15:18;3.50;99.90
9998;DHT22;5038;53.064;8.624;2024-03-17T06:17:50;3.40;99.90
9998;DHT22;5038;53.064;8.624;2024-03-17T06:20:19;3.50;99.90
9998;DHT22;5038;53.064;8.624;2024-03-17T06:22:46;3.40;99.90
9998;DHT22;5038;53.064;8.624;2024-03-17T06:25:17;3.40;99.90
9998;DHT22;5038;53.064;8.624;2024-03-17T06:27:52;3.60;99.90
9998;DHT22;5038;53.064;8.624;2024-03-17T06:30:26;3.40;99.90
9998;DHT22;5038;53.064;8.624;2024-03-17T06:33:01;3.50;99.90
9998;DHT22;5038;53.064;8.624;2024-03-17T06:35:30;3.60;99.90
9998;DHT22;5038;53.064;8.624;2024-03-17T06:38:01;3.70;99.90
9998;DHT22;5038;53.064;8.624;2024-03-17T06:40:28;3.80;99.90
9998;DHT22;5038;53.064;8.624;2024-03-17T06:42:57;3.80;99.90
9998;DHT22;5038;53.064;8.624;2024-03-17T06:45:25;4.00;99.90
9998;DHT22;5038;53.064;8.624;2024-03-17T06:47:53;3.90;99.90
9998;DHT22;5038;53.064;8.624;2024-03-17T06:50:25;4.00;99.90
9998;DHT22;5038;53.064;8.624;2024-03-17T06:52:54;4.20;99.90
9998;DHT22;5038;53.064;8.624;2024-03-17T06:55:24;4.20;99.90
9998;DHT22;5038;53.064;8.624;2024-03-17T06:57:54;4.20;99.90
9998;DHT22;5038;53.064;8.624;2024-03-17T07:00:22;4.30;99.90
9998;DHT22;5038;53.064;8.624;2024-03-17T07:02:52;4.30;99.90
9998;DHT22;5038;53.064;8.624;2024-03-17T07:05:25;4.30;99.90
9998;DHT22;5038;53.064;8.624;2024-03-17T07:07:56;4.40;99.90
9998;DHT22;5038;53.064;8.624;2024-03-17T07:10:25;4.40;99.90
9998;DHT22;5038;53.064;8.624;2024-03-17T07:12:54;4.50;99.90
9998;DHT22;5038;53.064;8.624;2024-03-17T07:15:22;4.60;99.90
9998;DHT22;5038;53.064;8.624;2024-03-17T07:17:50;4.60;99.90
9998;DHT22;5038;53.064;8.624;2024-03-17T07:20:18;4.70;99.90
9998;DHT22;5038;53.064;8.624;2024-03-17T07:22:48;4.70;99.90
9998;DHT22;5038;53.064;8.624;2024-03-17T07:25:18;4.80;99.90
9998;DHT22;5038;53.064;8.624;2024-03-17T07:27:47;4.80;99.90
9998;DHT22;5038;53.064;8.624;2024-03-17T07:30:15;4.90;99.90
9998;DHT22;5038;53.064;8.624;2024-03-17T07:32:43;4.90;99.90
9998;DHT22;5038;53.064;8.624;2024-03-17T07:35:10;5.00;99.90
9998;DHT22;5038;53.064;8.624;2024-03-17T07:37:38;5.10;99.90
9998;DHT22;5038;53.064;8.624;2024-03-17T07:40:13;5.10;99.90
9998;DHT22;5038;53.064;8.624;2024-03-17T07:42:44;5.20;99.90
9998;DHT22;5038;53.064;8.624;2024-03-17T07:45:14;5.30;99.90
9998;DHT22;5038;53.064;8.624;2024-03-17T07:47:43;5.40;99.90
9998;DHT22;5038;53.064;8.624;2024-03-17T07:50:15;5.50;99.90
9998;DHT22;5038;53.064;8.624;2024-03-17T07:52:44;5.60;99.90
9998;DHT22;5038;53.064;8.624;2024-03-17T07:55:16;5.70;99.90
9998;DHT22;5038;53.064;8.624;2024-03-17T07:57:47;5.80;99.90
9998;DHT22;5038;53.064;8.624;2024-03-17T08:00:18;5.90;99.90
9998;DHT22;5038;53.064;8.624;2024-03-17T08:02:51;6.00;99.90
9998;DHT22;5038;53.064;8.624;2024-03-17T08:05:20;6.10;99.90
9998;DHT22;5038;53.064;8.624;2024-03-17T08:07:49;6.20;99.90
9998;DHT22;5038;53.064;8.624;2024-03-17T08:10:20;6.30;99.90
9998;DHT22;5038;53.064;8.624;2024-03-17T08:13:05;6.60;99.90
9998;DHT22;5038;53.064;8.624;2024-03-17T08:15:44;6.70;99.90
9998;DHT22;5038;53.064;8.624;2024-03-17T08:18:16;6.90;99.90
9998;DHT22;5038;53.064;8.624;2024-03-17T08:20:48;7.10;99.90
9998;DHT22;5038;53.064;8.624;2024-03-17T08:23:18;7.20;99.90
9998;DHT22;5038;53.064;8.624;2024-03-17T08:26:01;7.30;99.90
9998;DHT22;5038;53.064;8.624;2024-03-17T08:28:29;7.40;99.90
9998;DHT22;5038;53.064;8.624;2024-03-17T08:31:04;7.40;99.90
9998;DHT22;5038;53.064;8.624;2024-03-17T08:33:37;7.40;99.90
9998;DHT22;5038;53.064;8.624;2024-03-17T08:36:08;7.50;99.90
9998;DHT22;5038;53.064;8.624;2024-03-17T08:38:40;7.50;99.90
9998;DHT22;5038;53.064;8.624;2024-03-17T08:41:15;7.60;99.90
9998;DHT22;5038;53.064;8.624;2024-03-17T08:43:44;7.70;99.90
9998;DHT22;5038;53.064;8.624;2024-03-17T08:46:16;7.90;99.90
9998;DHT22;5038;53.064;8.624;2024-03-17T08:48:48;8.00;99.90
9998;DHT22;5038;53.064;8.624;2024-03-17T08:51:17;8.10;99.90
9998;DHT22;5038;53.064;8.624;2024-03-17T08:53:48;8.20;99.90
9998;DHT22;5038;53.064;8.624;2024-03-17T08:56:20;8.30;99.90
9998;DHT22;5038;53.064;8.624;2024-03-17T08:58:56;8.50;99.90
9998;DHT22;5038;53.064;8.624;2024-03-17T09:01:36;8.50;99.90
9998;DHT22;5038;53.064;8.624;2024-03-17T09:04:08;8.70;99.90
9998;DHT22;5038;53.064;8.624;2024-03-17T09:06:40;8.70;99.90
9998;DHT22;5038;53.064;8.624;2024-03-17T09:09:20;8.80;99.90
9998;DHT22;5038;53.064;8.624;2024-03-17T09:12:19;8.90;99.90
9998;DHT22;5038;53.064;8.624;2024-03-17T09:15:00;9.00;99.90
9998;DHT22;5038;53.064;8.624;2024-03-17T09:17:30;9.10;99.90
9998;DHT22;5038;53.064;8.624;2024-03-17T09:20:04;9.20;99.90
9998;DHT22;5038;53.064;8.624;2024-03-17T09:22:32;9.20;99.90
9998;DHT22;5038;53.064;8.624;2024-03-17T09:25:00;9.30;99.90
9998;DHT22;5038;53.064;8.624;2024-03-17T09:27:36;9.30;99.90
9998;DHT22;5038;53.064;8.624;2024-03-17T09:30:08;9.30;99.90
9998;DHT22;5038;53.064;8.624;2024-03-17T09:32:47;9.40;99.90
9998;DHT22;5038;53.064;8.624;2024-03-17T09:35:30;9.40;99.90
9998;DHT22;5038;53.064;8.624;2024-03-17T09:38:12;9.40;99.90
9998;DHT22;5038;53.064;8.624;2024-03-17T09:40:46;9.40;99.90
9998;DHT22;5038;53.064;8.624;2024-03-17T09:47:27;9.40;99.90
9998;DHT22;5038;53.064;8.624;2024-03-17T09:50:01;9.50;99.90
9998;DHT22;5038;53.064;8.624;2024-03-17T09:52:30;9.60;99.90
9998;DHT22;5038;53.064;8.624;2024-03-17T09:55:13;9.60;99.90
9998;DHT22;5038;53.064;8.624;2024-03-17T09:57:50;9.70;99.90
9998;DHT22;5038;53.064;8.624;2024-03-17T10:00:24;9.70;99.90
9998;DHT22;5038;53.064;8.624;2024-03-17T10:02:53;9.80;99.90
9998;DHT22;5038;53.064;8.624;2024-03-17T10:05:23;9.90;99.90
9998;DHT22;5038;53.064;8.624;2024-03-17T10:07:55;9.90;99.90
9998;DHT22;5038;53.064;8.624;2024-03-17T10:10:23;9.90;99.90
9998;DHT22;5038;53.064;8.624;2024-03-17T10:12:52;9.90;99.90
9998;DHT22;5038;53.064;8.624;2024-03-17T10:15:21;9.90;99.90
9998;DHT22;5038;53.064;8.624;2024-03-17T10:17:49;9.90;99.90
9998;DHT22;5038;53.064;8.624;2024-03-17T10:20:24;9.90;99.90
9998;DHT22;5038;53.064;8.624;2024-03-17T10:23:00;9.90;99.90
9998;DHT22;5038;53.064;8.624;2024-03-17T10:25:31;10.00;99.90
9998;DHT22;5038;53.064;8.624;2024-03-17T10:28:00;9.90;99.90
9998;DHT22;5038;53.064;8.624;2024-03-17T10:30:30;9.90;99.90
9998;DHT22;5038;53.064;8.624;2024-03-17T10:32:59;9.90;99.90
9998;DHT22;5038;53.064;8.624;2024-03-17T10:35:32;9.90;99.90
9998;DHT22;5038;53.064;8.624;2024-03-17T10:38:04;9.90;99.90
9998;DHT22;5038;53.064;8.624;2024-03-17T10:40:35;9.90;99.90
9998;DHT22;5038;53.064;8.624;2024-03-17T10:43:05;9.90;99.90
9998;DHT22;5038;53.064;8.624;2024-03-17T10:45:37;10.00;99.90
9998;DHT22;5038;53.064;8.624;2024-03-17T10:48:08;10.00;99.90
9998;DHT22;5038;53.064;8.624;2024-03-17T10:50:40;10.10;99.90
9998;DHT22;5038;53.064;8.624;2024-03-17T10:53:07;10.10;99.90
9998;DHT22;5038;53.064;8.624;2024-03-17T10:55:42;10.20;99.90
9998;DHT22;5038;53.064;8.624;2024-03-17T10:58:22;10.20;99.90
9998;DHT22;5038;53.064;8.624;2024-03-17T11:00:51;10.20;99.90
9998;DHT22;5038;53.064;8.624;2024-03-17T11:03:21;10.20;99.90
9998;DHT22;5038;53.064;8.624;2024-03-17T11:05:55;10.20;99.90
9998;DHT22;5038;53.064;8.624;2024-03-17T11:08:25;10.20;99.90
9998;DHT22;5038;53.064;8.624;2024-03-17T11:10:56;10.20;99.90
9998;DHT22;5038;53.064;8.624;2024-03-17T11:13:28;10.20;99.90
9998;DHT22;5038;53.064;8.624;2024-03-17T11:16:25;10.20;99.90
9998;DHT22;5038;53.064;8.624;2024-03-17T11:19:06;10.20;99.90
9998;DHT22;5038;53.064;8.624;2024-03-17T11:21:36;10.20;99.90
9998;DHT22;5038;53.064;8.624;2024-03-17T11:24:06;10.30;99.90
9998;DHT22;5038;53.064;8.624;2024-03-17T11:26:35;10.40;99.90
9998;DHT22;5038;53.064;8.624;2024-03-17T11:29:04;10.40;99.90
9998;DHT22;5038;53.064;8.624;2024-03-17T11:31:39;10.50;99.90
9998;DHT22;5038;53.064;8.624;2024-03-17T11:34:30;10.50;99.90
9998;DHT22;5038;53.064;8.624;2024-03-17T11:37:02;10.60;99.90
9998;DHT22;5038;53.064;8.624;2024-03-17T11:39:52;10.70;99.90
9998;DHT22;5038;53.064;8.624;2024-03-17T11:42:24;10.80;99.90
9998;DHT22;5038;53.064;8.624;2024-03-17T11:45:04;10.80;99.90
9998;DHT22;5038;53.064;8.624;2024-03-17T11:47:34;10.80;99.90
9998;DHT22;5038;53.064;8.624;2024-03-17T11:50:04;10.90;99.90
9998;DHT22;5038;53.064;8.624;2024-03-17T11:52:37;10.90;99.90
9998;DHT22;5038;53.064;8.624;2024-03-17T11:55:15;11.00;99.90
9998;DHT22;5038;53.064;8.624;2024-03-17T11:57:55;11.00;99.90
9998;DHT22;5038;53.064;8.624;2024-03-17T12:00:26;11.00;99.90
9998;DHT22;5038;53.064;8.624;2024-03-17T12:02:53;11.00;99.90
9998;DHT22;5038;53.064;8.624;2024-03-17T12:05:25;11.10;99.90
9998;DHT22;5038;53.064;8.624;2024-03-17T12:07:53;11.10;99.90
9998;DHT22;5038;53.064;8.624;2024-03-17T12:10:21;11.10;99.90
9998;DHT22;5038;53.064;8.624;2024-03-17T12:12:48;11.20;99.90
9998;DHT22;5038;53.064;8.624;2024-03-17T12:15:18;11.20;99.90
9998;DHT22;5038;53.064;8.624;2024-03-17T12:17:52;11.30;99.90
9998;DHT22;5038;53.064;8.624;2024-03-17T12:20:20;11.30;99.90
9998;DHT22;5038;53.064;8.624;2024-03-17T12:22:48;11.30;99.90
9998;DHT22;5038;53.064;8.624;2024-03-17T12:25:20;11.40;99.90
9998;DHT22;5038;53.064;8.624;2024-03-17T12:27:51;11.50;99.90
9998;DHT22;5038;53.064;8.624;2024-03-17T12:30:18;11.60;99.90
9998;DHT22;5038;53.064;8.624;2024-03-17T12:32:50;11.60;99.90
9998;DHT22;5038;53.064;8.624;2024-03-17T12:35:18;11.70;99.90
9998;DHT22;5038;53.064;8.624;2024-03-17T12:37:48;11.70;99.90
9998;DHT22;5038;53.064;8.624;2024-03-17T12:40:21;11.70;99.90
9998;DHT22;5038;53.064;8.624;2024-03-17T12:42:51;11.70;99.90
9998;DHT22;5038;53.064;8.624;2024-03-17T12:45:22;11.80;99.90
9998;DHT22;5038;53.064;8.624;2024-03-17T12:47:53;11.80;99.90
9998;DHT22;5038;53.064;8.624;2024-03-17T12:50:23;11.80;99.90
9998;DHT22;5038;53.064;8.624;2024-03-17T12:52:52;11.80;99.90
9998;DHT22;5038;53.064;8.624;2024-03-17T12:55:22;11.90;99.90
9998;DHT22;5038;53.064;8.624;2024-03-17T12:58:11;12.00;99.90
9998;DHT22;5038;53.064;8.624;2024-03-17T13:01:00;12.10;99.90
9998;DHT22;5038;53.064;8.624;2024-03-17T13:03:29;12.10;99.90
9998;DHT22;5038;53.064;8.624;2024-03-17T13:05:58;12.30;99.90
9998;DHT22;5038;53.064;8.624;2024-03-17T13:08:26;12.30;99.90
9998;DHT22;5038;53.064;8.624;2024-03-17T13:10:55;12.40;99.90
9998;DHT22;5038;53.064;8.624;2024-03-17T13:13:23;12.50;99.90
9998;DHT22;5038;53.064;8.624;2024-03-17T13:15:51;12.50;99.90
9998;DHT22;5038;53.064;8.624;2024-03-17T13:18:20;12.60;99.90
9998;DHT22;5038;53.064;8.624;2024-03-17T13:20:48;12.60;99.90
9998;DHT22;5038;53.064;8.624;2024-03-17T13:23:18;12.70;99.90
9998;DHT22;5038;53.064;8.624;2024-03-17T13:25:48;12.70;99.90
9998;DHT22;5038;53.064;8.624;2024-03-17T13:28:18;12.60;99.90
9998;DHT22;5038;53.064;8.624;2024-03-17T13:30:46;12.60;99.90
9998;DHT22;5038;53.064;8.624;2024-03-17T13:33:16;12.60;99.90
9998;DHT22;5038;53.064;8.624;2024-03-17T13:35:44;12.50;99.90
9998;DHT22;5038;53.064;8.624;2024-03-17T13:38:12;12.50;99.90
9998;DHT22;5038;53.064;8.624;2024-03-17T13:40:41;12.50;99.90
9998;DHT22;5038;53.064;8.624;2024-03-17T13:43:10;12.40;99.90
9998;DHT22;5038;53.064;8.624;2024-03-17T13:45:40;12.40;99.90
9998;DHT22;5038;53.064;8.624;2024-03-17T13:48:11;12.30;99.90
9998;DHT22;5038;53.064;8.624;2024-03-17T13:50:40;12.30;99.90
9998;DHT22;5038;53.064;8.624;2024-03-17T13:53:11;12.30;99.90
9998;DHT22;5038;53.064;8.624;2024-03-17T13:55:39;12.30;99.90
9998;DHT22;5038;53.064;8.624;2024-03-17T13:58:07;12.30;99.90
9998;DHT22;5038;53.064;8.624;2024-03-17T14:00:36;12.30;99.90
9998;DHT22;5038;53.064;8.624;2024-03-17T14:03:07;12.30;99.90
9998;DHT22;5038;53.064;8.624;2024-03-17T14:05:36;12.30;99.90
9998;DHT22;5038;53.064;8.624;2024-03-17T14:08:06;12.30;99.90
9998;DHT22;5038;53.064;8.624;2024-03-17T14:10:36;12.30;99.90
9998;DHT22;5038;53.064;8.624;2024-03-17T14:13:04;12.30;99.90
9998;DHT22;5038;53.064;8.624;2024-03-17T14:15:32;12.30;99.90
9998;DHT22;5038;53.064;8.624;2024-03-17T14:18:00;12.30;99.90
9998;DHT22;5038;53.064;8.624;2024-03-17T14:20:32;12.20;99.90
9998;DHT22;5038;53.064;8.624;2024-03-17T14:23:00;12.30;99.90
9998;DHT22;5038;53.064;8.624;2024-03-17T14:25:30;12.20;99.90
9998;DHT22;5038;53.064;8.624;2024-03-17T14:27:58;12.20;99.90
9998;DHT22;5038;53.064;8.624;2024-03-17T14:30:26;12.20;99.90
9998;DHT22;5038;53.064;8.624;2024-03-17T14:32:54;12.20;99.90
9998;DHT22;5038;53.064;8.624;2024-03-17T14:35:23;12.20;99.90
9998;DHT22;5038;53.064;8.624;2024-03-17T14:37:55;12.10;99.90
9998;DHT22;5038;53.064;8.624;2024-03-17T14:40:28;12.20;99.90
9998;DHT22;5038;53.064;8.624;2024-03-17T14:42:55;12.10;99.90
9998;DHT22;5038;53.064;8.624;2024-03-17T14:45:23;12.10;99.90
9998;DHT22;5038;53.064;8.624;2024-03-17T14:47:52;12.10;99.90
9998;DHT22;5038;53.064;8.624;2024-03-17T14:50:20;12.10;99.90
9998;DHT22;5038;53.064;8.624;2024-03-17T14:52:48;12.10;99.90
9998;DHT22;5038;53.064;8.624;2024-03-17T14:55:20;12.10;99.90
9998;DHT22;5038;53.064;8.624;2024-03-17T14:57:50;12.00;99.90
9998;DHT22;5038;53.064;8.624;2024-03-17T15:00:18;12.00;99.90
9998;DHT22;5038;53.064;8.624;2024-03-17T15:02:47;12.00;99.90
9998;DHT22;5038;53.064;8.624;2024-03-17T15:05:15;12.00;99.90
9998;DHT22;5038;53.064;8.624;2024-03-17T15:07:57;12.00;99.90
9998;DHT22;5038;53.064;8.624;2024-03-17T15:10:29;11.90;99.90
9998;DHT22;5038;53.064;8.624;2024-03-17T15:13:01;11.90;99.90
9998;DHT22;5038;53.064;8.624;2024-03-17T15:15:29;11.90;99.90
9998;DHT22;5038;53.064;8.624;2024-03-17T15:17:58;11.90;99.90
9998;DHT22;5038;53.064;8.624;2024-03-17T15:20:34;11.90;99.90
9998;DHT22;5038;53.064;8.624;2024-03-17T15:23:02;11.90;99.90
9998;DHT22;5038;53.064;8.624;2024-03-17T15:25:34;11.90;99.90
9998;DHT22;5038;53.064;8.624;2024-03-17T15:28:09;11.90;99.90
9998;DHT22;5038;53.064;8.624;2024-03-17T15:30:45;11.90;99.90
9998;DHT22;5038;53.064;8.624;2024-03-17T15:33:16;11.90;99.90
9998;DHT22;5038;53.064;8.624;2024-03-17T15:35:48;11.90;99.90
9998;DHT22;5038;53.064;8.624;2024-03-17T15:38:33;11.80;99.90
9998;DHT22;5038;53.064;8.624;2024-03-17T15:41:08;11.80;99.90
9998;DHT22;5038;53.064;8.624;2024-03-17T15:43:46;11.80;99.90
9998;DHT22;5038;53.064;8.624;2024-03-17T15:46:27;11.80;99.90
9998;DHT22;5038;53.064;8.624;2024-03-17T15:49:02;11.70;99.90
9998;DHT22;5038;53.064;8.624;2024-03-17T15:51:38;11.80;99.90
9998;DHT22;5038;53.064;8.624;2024-03-17T15:54:07;11.70;99.90
9998;DHT22;5038;53.064;8.624;2024-03-17T15:56:49;11.70;99.90
9998;DHT22;5038;53.064;8.624;2024-03-17T15:59:45;11.70;99.90
9998;DHT22;5038;53.064;8.624;2024-03-17T16:02:16;11.60;99.90
9998;DHT22;5038;53.064;8.624;2024-03-17T16:04:59;11.70;99.90
9998;DHT22;5038;53.064;8.624;2024-03-17T16:07:29;11.60;99.90
9998;DHT22;5038;53.064;8.624;2024-03-17T16:10:23;11.60;99.90
9998;DHT22;5038;53.064;8.624;2024-03-17T16:13:04;11.60;99.90
9998;DHT22;5038;53.064;8.624;2024-03-17T16:15:42;11.50;99.90
9998;DHT22;5038;53.064;8.624;2024-03-17T16:18:20;11.50;99.90
9998;DHT22;5038;53.064;8.624;2024-03-17T16:20:59;11.50;99.90
9998;DHT22;5038;53.064;8.624;2024-03-17T16:23:29;11.40;99.90
9998;DHT22;5038;53.064;8.624;2024-03-17T16:26:06;11.40;99.90
9998;DHT22;5038;53.064;8.624;2024-03-17T16:28:40;11.40;99.90
9998;DHT22;5038;53.064;8.624;2024-03-17T16:31:12;11.40;99.90
9998;DHT22;5038;53.064;8.624;2024-03-17T16:33:46;11.30;99.90
9998;DHT22;5038;53.064;8.624;2024-03-17T16:36:15;11.30;99.90
9998;DHT22;5038;53.064;8.624;2024-03-17T16:38:46;11.30;99.90
9998;DHT22;5038;53.064;8.624;2024-03-17T16:41:17;11.30;99.90
9998;DHT22;5038;53.064;8.624;2024-03-17T16:43:53;11.20;99.90